Time;durP1;ratioP1;P1;durP2;ratioP2;P2;SDS_P1;SDS_P2;PMS_P1;PMS_P2;Temp;Humidity;BMP_temperature;BMP_pressure;BME280_temperature;BME280_humidity;BME280_pressure;Samples;Min_cycle;Max_cycle;Signal;HPM_P1;HPM_P2
2021/03/14 00:02:14;;;;;;;0.60;0.40;;;7.90;99.90;;;;;;5029992;28;20449;-48
2021/03/14 00:04:41;;;;;;;1.17;0.50;;;8.00;99.90;;;;;;5013345;28;20457;-48
2021/03/14 00:07:08;;;;;;;3.03;0.50;;;8.00;99.90;;;;;;5031649;28;20465;-47
2021/03/14 00:09:35;;;;;;;0.70;0.50;;;8.10;99.90;;;;;;5038074;28;20959;-48
2021/03/14 00:12:01;;;;;;;0.77;0.40;;;8.00;99.90;;;;;;5032550;28;20792;-48
2021/03/14 00:14:30;;;;;;;0.97;0.40;;;7.90;99.90;;;;;;5032062;28;20519;-48
2021/03/14 00:16:56;;;;;;;1.23;0.50;;;7.90;99.90;;;;;;5028186;28;20451;-48
2021/03/14 00:19:23;;;;;;;1.07;0.50;;;7.70;99.90;;;;;;5012377;28;20485;-48
2021/03/14 00:21:49;;;;;;;2.23;0.50;;;7.50;99.90;;;;;;5013641;28;20481;-48
2021/03/14 00:24:16;;;;;;;0.77;0.50;;;7.50;99.90;;;;;;5032607;28;20523;-47
2021/03/14 00:26:43;;;;;;;1.33;0.40;;;7.60;99.90;;;;;;5028867;28;20813;-47
2021/03/14 00:29:10;;;;;;;1.30;0.50;;;7.50;99.90;;;;;;5018532;28;20827;-48
2021/03/14 00:31:37;;;;;;;3.13;0.73;;;7.50;99.90;;;;;;5034391;28;20468;-48
2021/03/14 00:34:04;;;;;;;1.53;0.60;;;7.50;99.90;;;;;;5031973;28;20473;-48
2021/03/14 00:36:31;;;;;;;1.63;0.50;;;7.30;99.90;;;;;;5031934;28;20487;-48
2021/03/14 00:38:57;;;;;;;0.60;0.47;;;7.20;99.90;;;;;;5012635;28;20488;-48
2021/03/14 00:41:24;;;;;;;0.97;0.60;;;7.10;99.90;;;;;;5017872;28;20456;-48
2021/03/14 00:43:51;;;;;;;0.70;0.70;;;7.00;99.90;;;;;;5053943;22;20496;-50
2021/03/14 00:46:17;;;;;;;1.27;0.80;;;7.10;99.90;;;;;;5030892;28;20451;-50
2021/03/14 00:48:44;;;;;;;2.40;0.60;;;7.10;99.90;;;;;;5032270;28;20443;-49
2021/03/14 00:51:10;;;;;;;0.80;0.50;;;7.30;99.90;;;;;;5014883;28;20450;-49
2021/03/14 00:53:37;;;;;;;2.00;0.90;;;7.30;99.90;;;;;;5012573;28;20470;-50
2021/03/14 00:56:03;;;;;;;0.50;0.40;;;7.40;99.90;;;;;;5012282;28;20556;-49
2021/03/14 00:58:31;;;;;;;0.57;0.40;;;7.40;99.90;;;;;;5011970;28;20488;-49
2021/03/14 01:00:57;;;;;;;0.97;0.50;;;7.10;99.90;;;;;;5012150;28;20531;-49
2021/03/14 01:03:23;;;;;;;1.13;0.50;;;6.90;99.90;;;;;;5011218;28;20539;-49
2021/03/14 01:05:50;;;;;;;1.43;0.50;;;6.80;99.90;;;;;;5012031;28;20492;-50
2021/03/14 01:08:17;;;;;;;1.50;0.50;;;6.60;99.90;;;;;;5012589;28;20452;-49
2021/03/14 01:10:44;;;;;;;0.60;0.40;;;6.50;99.90;;;;;;5013472;28;20503;-49
2021/03/14 01:13:11;;;;;;;1.20;0.60;;;6.20;99.90;;;;;;5011330;28;20846;-49
2021/03/14 01:15:38;;;;;;;0.80;0.43;;;6.00;99.90;;;;;;5011992;28;20819;-49
2021/03/14 01:18:05;;;;;;;1.47;0.47;;;5.80;99.90;;;;;;5009546;28;20459;-49
2021/03/14 01:20:32;;;;;;;0.50;0.33;;;5.70;99.90;;;;;;4992225;28;20844;-49
2021/03/14 01:22:58;;;;;;;1.47;0.40;;;5.50;99.90;;;;;;5011045;28;20470;-49
2021/03/14 01:25:25;;;;;;;1.73;0.40;;;5.10;99.90;;;;;;5012141;28;20454;-50
2021/03/14 01:27:51;;;;;;;0.83;0.40;;;4.90;99.90;;;;;;5011777;28;20454;-50
2021/03/14 01:30:19;;;;;;;0.87;0.40;;;4.70;99.90;;;;;;5011923;28;20450;-49
2021/03/14 01:32:48;;;;;;;0.60;0.40;;;4.60;99.90;;;;;;5003753;28;20462;-50
2021/03/14 01:35:15;;;;;;;0.50;0.30;;;4.50;99.90;;;;;;4992965;28;20453;-50
2021/03/14 01:37:41;;;;;;;0.87;0.30;;;4.40;99.90;;;;;;4992835;28;20477;-50
2021/03/14 01:40:10;;;;;;;0.50;0.30;;;4.30;99.90;;;;;;4996194;28;20492;-49
2021/03/14 01:42:36;;;;;;;0.50;0.30;;;4.30;99.90;;;;;;5012249;28;20523;-49
2021/03/14 01:45:04;;;;;;;0.70;0.50;;;4.30;99.90;;;;;;5012150;28;20454;-49
2021/03/14 01:47:33;;;;;;;0.60;0.30;;;4.20;99.90;;;;;;5011891;28;20511;-49
2021/03/14 01:50:03;;;;;;;0.97;0.33;;;4.10;99.90;;;;;;5013708;28;20452;-50
2021/03/14 01:52:31;;;;;;;0.60;0.50;;;4.00;99.90;;;;;;5012667;28;20450;-50
2021/03/14 01:54:57;;;;;;;2.80;0.40;;;4.30;99.90;;;;;;5012100;28;20469;-50
2021/03/14 01:57:23;;;;;;;0.50;0.30;;;4.40;99.90;;;;;;5011904;28;20457;-49
2021/03/14 01:59:50;;;;;;;0.63;0.33;;;4.40;99.90;;;;;;5005042;28;20478;-49
2021/03/14 02:02:16;;;;;;;0.93;0.40;;;4.30;99.90;;;;;;5004288;28;20456;-50
2021/03/14 02:04:43;;;;;;;0.50;0.30;;;4.20;99.90;;;;;;5010886;28;20815;-50
2021/03/14 02:07:10;;;;;;;0.80;0.40;;;4.00;99.90;;;;;;5010877;28;20950;-50
2021/03/14 02:09:37;;;;;;;0.50;0.33;;;4.00;99.90;;;;;;5011374;28;20461;-50
2021/03/14 02:12:07;;;;;;;0.50;0.30;;;4.10;99.90;;;;;;5011285;28;20460;-49
2021/03/14 02:14:36;;;;;;;0.40;0.30;;;4.00;99.90;;;;;;5009665;28;20476;-49
2021/03/14 02:17:03;;;;;;;0.50;0.30;;;4.00;99.90;;;;;;5011197;28;20971;-50
2021/03/14 02:19:37;;;;;;;0.50;0.30;;;3.70;99.90;;;;;;5011657;28;20541;-49
2021/03/14 02:22:04;;;;;;;0.80;0.80;;;3.70;99.90;;;;;;5010977;28;21002;-50
2021/03/14 02:24:39;;;;;;;0.50;0.30;;;3.80;99.90;;;;;;5011407;28;20465;-51
2021/03/14 02:27:08;;;;;;;0.43;0.30;;;3.90;99.90;;;;;;5010229;28;20486;-49
2021/03/14 02:29:36;;;;;;;0.50;0.30;;;3.90;99.90;;;;;;5011115;28;20445;-49
2021/03/14 02:32:07;;;;;;;0.50;0.30;;;4.00;99.90;;;;;;5010114;28;20452;-50
2021/03/14 02:34:36;;;;;;;0.50;0.30;;;4.20;99.90;;;;;;4997130;28;20474;-49
2021/03/14 02:37:05;;;;;;;0.50;0.33;;;4.40;99.90;;;;;;5010346;28;20457;-49
2021/03/14 02:39:35;;;;;;;0.50;0.40;;;4.40;99.90;;;;;;5010564;28;20481;-49
2021/03/14 02:42:02;;;;;;;0.50;0.30;;;4.50;99.90;;;;;;5009903;28;20453;-49
2021/03/14 02:44:34;;;;;;;0.50;0.30;;;4.30;99.90;;;;;;5013324;28;20523;-49
2021/03/14 02:47:01;;;;;;;0.43;0.30;;;4.40;99.90;;;;;;5015261;28;20446;-49
2021/03/14 02:49:28;;;;;;;0.60;0.40;;;4.40;99.90;;;;;;5014978;28;20452;-49
2021/03/14 02:51:55;;;;;;;0.50;0.30;;;4.30;99.90;;;;;;5014892;28;20449;-50
2021/03/14 02:54:22;;;;;;;0.50;0.30;;;4.30;99.90;;;;;;5014224;28;20893;-50
2021/03/14 02:56:50;;;;;;;0.50;0.30;;;4.20;99.90;;;;;;5014536;28;20480;-50
2021/03/14 02:59:20;;;;;;;0.47;0.30;;;4.30;99.90;;;;;;5014890;28;20515;-49
2021/03/14 03:01:49;;;;;;;0.80;0.40;;;4.20;99.90;;;;;;5014591;28;20465;-49
2021/03/14 03:04:18;;;;;;;0.50;0.30;;;4.30;99.90;;;;;;5014017;28;20479;-49
2021/03/14 03:06:46;;;;;;;0.50;0.40;;;4.10;99.90;;;;;;5014687;28;20528;-50
2021/03/14 03:09:15;;;;;;;0.40;0.30;;;4.20;99.90;;;;;;5013948;28;20529;-49
2021/03/14 03:11:43;;;;;;;0.50;0.30;;;4.20;99.90;;;;;;5013704;28;20453;-50
2021/03/14 03:14:16;;;;;;;0.50;0.40;;;4.20;99.90;;;;;;5013940;28;20532;-49
2021/03/14 03:16:46;;;;;;;0.50;0.30;;;4.30;99.90;;;;;;5014071;28;20464;-50
2021/03/14 03:19:18;;;;;;;0.53;0.40;;;4.50;99.90;;;;;;5013568;28;20504;-49
2021/03/14 03:21:45;;;;;;;0.50;0.30;;;4.50;99.90;;;;;;5013107;28;20449;-49
2021/03/14 03:24:13;;;;;;;1.23;0.50;;;4.50;99.90;;;;;;5013659;28;20520;-49
2021/03/14 03:26:41;;;;;;;0.60;0.40;;;4.70;99.90;;;;;;5013804;28;20885;-49
2021/03/14 03:29:07;;;;;;;0.50;0.30;;;4.60;99.90;;;;;;5013965;28;21164;-49
2021/03/14 03:31:34;;;;;;;0.50;0.30;;;4.50;99.90;;;;;;5014119;28;20878;-49
2021/03/14 03:34:00;;;;;;;0.60;0.33;;;4.40;99.90;;;;;;5014307;28;20935;-49
2021/03/14 03:36:28;;;;;;;0.83;0.33;;;4.30;99.90;;;;;;5010691;28;20458;-49
2021/03/14 03:38:54;;;;;;;0.50;0.40;;;4.30;99.90;;;;;;5013840;28;20867;-49
2021/03/14 03:41:22;;;;;;;0.50;0.40;;;4.40;99.90;;;;;;5013703;28;20452;-50
2021/03/14 03:43:51;;;;;;;0.50;0.30;;;4.40;99.90;;;;;;5013743;28;20481;-49
2021/03/14 03:46:19;;;;;;;0.50;0.37;;;4.40;99.90;;;;;;5012112;28;20457;-49
2021/03/14 03:48:49;;;;;;;0.50;0.40;;;4.30;99.90;;;;;;5011478;28;20451;-49
2021/03/14 03:51:19;;;;;;;0.50;0.40;;;4.20;99.90;;;;;;4994169;28;20557;-49
2021/03/14 03:53:48;;;;;;;0.57;0.50;;;4.20;99.90;;;;;;4999338;28;20473;-49
2021/03/14 03:56:16;;;;;;;0.83;0.30;;;4.10;99.90;;;;;;5012500;28;20453;-49
2021/03/14 03:58:44;;;;;;;0.50;0.40;;;4.10;99.90;;;;;;5013714;28;20482;-49
2021/03/14 04:01:12;;;;;;;0.50;0.37;;;4.10;99.90;;;;;;5013188;28;20541;-49
2021/03/14 04:03:42;;;;;;;0.50;0.30;;;4.10;99.90;;;;;;5013214;28;20479;-49
2021/03/14 04:06:09;;;;;;;0.50;0.30;;;3.90;99.90;;;;;;5013730;28;20453;-49
2021/03/14 04:08:36;;;;;;;0.50;0.30;;;3.80;99.90;;;;;;5013748;28;20520;-49
2021/03/14 04:11:06;;;;;;;0.50;0.40;;;3.70;99.90;;;;;;5009263;28;20455;-49
2021/03/14 04:13:35;;;;;;;0.50;0.30;;;3.80;99.90;;;;;;4994172;28;20485;-49
2021/03/14 04:16:02;;;;;;;0.50;0.40;;;3.80;99.90;;;;;;4994782;28;20449;-49
2021/03/14 04:18:30;;;;;;;0.50;0.40;;;3.80;99.90;;;;;;5013025;28;20457;-49
2021/03/14 04:20:59;;;;;;;0.53;0.40;;;3.70;99.90;;;;;;5013043;28;20457;-49
2021/03/14 04:23:27;;;;;;;0.50;0.30;;;3.80;99.90;;;;;;5012825;28;20472;-49
2021/03/14 04:25:57;;;;;;;0.60;0.40;;;3.80;99.90;;;;;;5012981;28;20507;-49
2021/03/14 04:28:26;;;;;;;0.60;0.40;;;4.00;99.90;;;;;;5013536;28;20456;-49
2021/03/14 04:30:53;;;;;;;0.70;0.60;;;4.10;99.90;;;;;;5012474;28;20448;-49
2021/03/14 04:33:21;;;;;;;0.87;0.40;;;4.20;99.90;;;;;;5012002;28;20480;-50
2021/03/14 04:35:49;;;;;;;3.73;0.50;;;4.20;99.90;;;;;;5012382;28;20454;-49
2021/03/14 04:38:16;;;;;;;1.00;0.40;;;4.10;99.90;;;;;;5012053;28;20472;-49
2021/03/14 04:40:43;;;;;;;1.20;0.60;;;4.20;99.90;;;;;;5013080;28;20450;-49
2021/03/14 04:43:10;;;;;;;1.03;0.50;;;4.20;99.90;;;;;;5012475;28;20500;-50
2021/03/14 04:45:38;;;;;;;0.50;0.40;;;4.10;99.90;;;;;;5012225;28;20844;-49
2021/03/14 04:48:05;;;;;;;0.70;0.40;;;4.10;99.90;;;;;;5012717;28;20460;-49
2021/03/14 04:50:32;;;;;;;0.50;0.40;;;3.90;99.90;;;;;;5012043;28;20979;-49
2021/03/14 04:53:01;;;;;;;0.60;0.33;;;4.00;99.90;;;;;;5012266;28;20485;-49
2021/03/14 04:55:33;;;;;;;0.50;0.40;;;3.90;99.90;;;;;;5012285;28;20457;-49
2021/03/14 04:58:00;;;;;;;0.70;0.60;;;3.90;99.90;;;;;;5003462;28;20453;-49
2021/03/14 05:00:28;;;;;;;0.53;0.40;;;4.00;99.90;;;;;;5008817;28;20490;-49
2021/03/14 05:02:59;;;;;;;0.50;0.33;;;4.00;99.90;;;;;;5011810;28;20480;-49
2021/03/14 05:05:26;;;;;;;0.50;0.30;;;3.90;99.90;;;;;;5010193;28;20977;-49
2021/03/14 05:07:54;;;;;;;0.50;0.40;;;3.90;99.90;;;;;;5010927;28;20518;-49
2021/03/14 05:10:22;;;;;;;0.50;0.40;;;3.90;99.90;;;;;;5012191;28;20449;-49
2021/03/14 05:12:50;;;;;;;0.50;0.30;;;4.10;99.90;;;;;;4993573;28;20971;-49
2021/03/14 05:15:18;;;;;;;0.50;0.40;;;4.10;99.90;;;;;;5009357;28;20465;-49
2021/03/14 05:17:48;;;;;;;0.60;0.40;;;3.80;99.90;;;;;;5012300;28;21111;-48
2021/03/14 05:20:17;;;;;;;0.50;0.40;;;3.80;99.90;;;;;;5012783;28;20482;-49
2021/03/14 05:22:45;;;;;;;0.50;0.33;;;3.80;99.90;;;;;;5017725;28;20490;-49
2021/03/14 05:25:14;;;;;;;1.37;0.50;;;3.90;99.90;;;;;;5011504;28;20460;-50
2021/03/14 05:27:42;;;;;;;0.50;0.30;;;3.90;99.90;;;;;;5012425;28;20452;-49
2021/03/14 05:30:10;;;;;;;0.60;0.40;;;3.80;99.90;;;;;;5011847;28;20457;-49
2021/03/14 05:32:36;;;;;;;0.50;0.40;;;3.90;99.90;;;;;;5022257;28;20510;-49
2021/03/14 05:35:03;;;;;;;1.13;0.40;;;3.90;99.90;;;;;;5027229;28;20461;-49
2021/03/14 05:37:31;;;;;;;0.60;0.50;;;3.80;99.90;;;;;;5011889;28;20457;-50
2021/03/14 05:39:57;;;;;;;3.27;0.50;;;3.80;99.90;;;;;;4995578;28;20485;-49
2021/03/14 05:42:25;;;;;;;0.50;0.40;;;3.90;99.90;;;;;;5006616;28;20450;-49
2021/03/14 05:44:52;;;;;;;0.60;0.50;;;3.80;99.90;;;;;;5013260;28;20486;-49
2021/03/14 05:47:20;;;;;;;0.73;0.50;;;3.90;99.90;;;;;;5011862;28;20452;-49
2021/03/14 05:49:47;;;;;;;0.93;0.80;;;3.80;99.90;;;;;;5011487;28;20445;-49
2021/03/14 05:52:17;;;;;;;0.70;0.50;;;4.00;99.90;;;;;;5010100;28;20834;-49
2021/03/14 05:54:45;;;;;;;1.10;0.40;;;4.00;99.90;;;;;;5011194;28;20474;-50
2021/03/14 05:57:16;;;;;;;0.50;0.40;;;4.10;99.90;;;;;;5010313;28;20835;-49
2021/03/14 05:59:45;;;;;;;0.60;0.50;;;4.00;99.90;;;;;;5009749;28;20484;-49
2021/03/14 06:02:15;;;;;;;1.17;0.50;;;3.90;99.90;;;;;;5009742;28;20455;-49
2021/03/14 06:04:42;;;;;;;1.20;0.67;;;4.10;99.90;;;;;;5009184;28;20468;-49
2021/03/14 06:07:08;;;;;;;0.50;0.40;;;4.10;99.90;;;;;;4994457;28;20448;-49
2021/03/14 06:09:35;;;;;;;0.70;0.50;;;3.90;99.90;;;;;;4989847;28;20508;-49
2021/03/14 06:12:02;;;;;;;2.00;0.60;;;3.80;99.90;;;;;;5014350;28;20455;-49
2021/03/14 06:14:29;;;;;;;1.00;0.53;;;3.60;99.90;;;;;;5012431;28;20504;-49
2021/03/14 06:16:58;;;;;;;2.23;0.53;;;3.70;99.90;;;;;;5011362;28;20457;-49
2021/03/14 06:19:25;;;;;;;2.50;0.60;;;3.60;99.90;;;;;;5006764;28;20481;-49
2021/03/14 06:21:51;;;;;;;0.60;0.53;;;3.60;99.90;;;;;;4991698;28;20507;-49
2021/03/14 06:24:18;;;;;;;1.73;0.60;;;3.60;99.90;;;;;;5003144;28;20477;-49
2021/03/14 06:26:46;;;;;;;1.70;0.60;;;3.60;99.90;;;;;;5011258;28;20450;-49
2021/03/14 06:29:24;;;;;;;0.70;0.50;;;3.90;99.90;;;;;;5007802;28;20453;-49
2021/03/14 06:31:53;;;;;;;0.77;0.60;;;3.90;99.90;;;;;;4991482;28;20872;-49
2021/03/14 06:34:24;;;;;;;0.60;0.40;;;4.00;99.90;;;;;;5004875;28;20477;-49
2021/03/14 06:36:51;;;;;;;2.00;0.60;;;4.30;99.90;;;;;;5010949;28;20450;-49
2021/03/14 06:39:22;;;;;;;0.70;0.60;;;4.40;99.90;;;;;;5010795;28;20492;-49
2021/03/14 06:41:49;;;;;;;0.70;0.60;;;4.40;99.90;;;;;;5004380;28;20451;-48
2021/03/14 06:44:24;;;;;;;1.30;0.60;;;4.60;99.90;;;;;;5001052;28;20683;-49
2021/03/14 06:46:50;;;;;;;0.93;0.70;;;5.00;99.90;;;;;;4999763;28;20456;-49
2021/03/14 06:49:18;;;;;;;2.17;0.50;;;5.10;99.90;;;;;;5010910;28;20514;-49
2021/03/14 06:51:46;;;;;;;0.93;0.60;;;4.80;99.90;;;;;;5027956;22;20913;-50
2021/03/14 06:54:27;;;;;;;0.90;0.50;;;4.70;99.90;;;;;;5003453;28;20836;-51
2021/03/14 06:57:08;;;;;;;1.07;0.50;;;4.90;99.90;;;;;;5010761;28;20815;-50
2021/03/14 06:59:38;;;;;;;0.90;0.70;;;4.70;99.90;;;;;;5010592;28;20485;-51
2021/03/14 07:02:06;;;;;;;1.33;0.90;;;4.80;99.90;;;;;;4991311;28;20449;-50
2021/03/14 07:04:35;;;;;;;3.33;1.30;;;4.90;99.90;;;;;;4991963;28;20454;-51
2021/03/14 07:07:02;;;;;;;0.80;0.60;;;5.00;99.90;;;;;;4991538;28;20458;-50
2021/03/14 07:09:29;;;;;;;1.13;1.00;;;5.10;99.90;;;;;;4989457;28;20833;-50
2021/03/14 07:11:55;;;;;;;1.10;0.70;;;5.10;99.90;;;;;;5001831;28;20896;-50
2021/03/14 07:14:25;;;;;;;1.40;0.63;;;5.10;99.90;;;;;;4991080;28;20461;-51
2021/03/14 07:16:55;;;;;;;2.20;0.70;;;5.00;99.90;;;;;;4991285;28;20810;-50
2021/03/14 07:19:24;;;;;;;1.63;0.60;;;4.90;99.90;;;;;;4986516;28;21018;-50
2021/03/14 07:22:01;;;;;;;1.33;0.80;;;4.90;99.90;;;;;;4985870;28;20508;-50
2021/03/14 07:24:33;;;;;;;0.70;0.50;;;5.20;99.90;;;;;;4976660;28;20457;-50
2021/03/14 07:27:00;;;;;;;1.37;0.40;;;5.20;99.90;;;;;;4977749;28;20451;-50
2021/03/14 07:29:28;;;;;;;1.10;0.70;;;5.20;99.90;;;;;;4999312;28;20457;-50
2021/03/14 07:31:56;;;;;;;1.53;0.60;;;5.20;99.90;;;;;;4994653;28;20830;-49
2021/03/14 07:34:25;;;;;;;0.87;0.60;;;5.40;99.90;;;;;;4994049;28;20952;-49
2021/03/14 07:36:52;;;;;;;0.80;0.40;;;5.40;99.90;;;;;;4995082;28;20698;-50
2021/03/14 07:39:19;;;;;;;1.50;0.73;;;5.30;99.90;;;;;;4994528;28;20471;-50
2021/03/14 07:41:45;;;;;;;1.57;0.70;;;5.30;99.90;;;;;;4994154;28;20984;-50
2021/03/14 07:44:12;;;;;;;0.63;0.57;;;5.30;99.90;;;;;;5001888;28;20530;-50
2021/03/14 07:46:41;;;;;;;1.53;0.80;;;5.00;99.90;;;;;;5013684;28;20457;-51
2021/03/14 07:49:13;;;;;;;0.80;0.80;;;5.20;99.90;;;;;;5013812;28;20461;-50
2021/03/14 07:51:44;;;;;;;1.23;0.80;;;5.40;99.90;;;;;;5013098;28;21010;-50
2021/03/14 07:54:15;;;;;;;1.83;0.80;;;5.40;99.90;;;;;;5004870;28;20545;-50
2021/03/14 07:56:41;;;;;;;0.60;0.60;;;5.10;99.90;;;;;;4994049;28;20458;-50
2021/03/14 07:59:11;;;;;;;0.60;0.60;;;5.20;99.90;;;;;;4993916;28;20564;-50
2021/03/14 08:01:39;;;;;;;0.60;0.57;;;5.10;99.90;;;;;;4993880;28;20478;-50
2021/03/14 08:04:29;;;;;;;1.20;0.80;;;5.10;99.90;;;;;;4994222;28;20461;-50
2021/03/14 08:06:55;;;;;;;1.77;0.70;;;5.20;99.90;;;;;;4992627;28;20474;-49
2021/03/14 08:09:45;;;;;;;1.10;0.70;;;5.30;99.90;;;;;;4980932;28;20963;-50
2021/03/14 08:12:21;;;;;;;1.00;0.70;;;5.30;99.90;;;;;;4982394;28;20459;-50
2021/03/14 08:14:49;;;;;;;11.87;3.77;;;5.30;99.90;;;;;;4989241;28;20446;-49
2021/03/14 08:17:21;;;;;;;13.67;4.97;;;5.40;99.90;;;;;;5007811;28;20441;-49
2021/03/14 08:19:49;;;;;;;1.30;1.10;;;5.50;99.90;;;;;;5009583;28;21074;-49
2021/03/14 08:22:48;;;;;;;3.00;1.77;;;5.50;99.90;;;;;;4993743;28;20516;-49
2021/03/14 08:25:23;;;;;;;1.47;0.90;;;5.60;99.90;;;;;;4993110;28;20451;-51
2021/03/14 08:27:51;;;;;;;1.87;1.10;;;5.90;99.90;;;;;;4993485;28;21014;-50
2021/03/14 08:30:46;;;;;;;1.30;1.10;;;6.80;99.90;;;;;;4993566;28;20469;-49
2021/03/14 08:33:25;;;;;;;4.53;2.20;;;7.70;99.90;;;;;;4980076;28;20462;-51
2021/03/14 08:35:54;;;;;;;1.33;0.73;;;8.60;99.90;;;;;;4977716;28;20458;-51
2021/03/14 08:38:28;;;;;;;3.40;2.10;;;9.20;99.90;;;;;;4989211;28;20458;-51
2021/03/14 08:41:27;;;;;;;1.17;0.80;;;10.00;99.90;;;;;;4972649;28;20837;-51
2021/03/14 08:43:57;;;;;;;0.70;0.50;;;10.40;99.90;;;;;;4973527;28;20451;-51
2021/03/14 08:47:02;;;;;;;0.70;0.70;;;10.40;99.90;;;;;;4978305;28;20997;-51
2021/03/14 08:49:29;;;;;;;1.10;0.60;;;10.90;99.90;;;;;;4992958;28;20489;-51
2021/03/14 08:51:57;;;;;;;0.80;0.70;;;10.90;99.90;;;;;;4987982;28;20475;-49
2021/03/14 08:54:28;;;;;;;1.37;1.27;;;9.00;99.90;;;;;;4974826;28;20526;-50
2021/03/14 08:56:57;;;;;;;1.40;0.70;;;8.10;99.90;;;;;;4996510;28;20468;-50
2021/03/14 08:59:24;;;;;;;1.00;0.60;;;8.10;99.90;;;;;;4994525;28;20999;-50
2021/03/14 09:01:56;;;;;;;2.30;0.90;;;7.70;99.90;;;;;;4986511;28;20471;-50
2021/03/14 09:04:26;;;;;;;1.50;1.40;;;7.20;99.90;;;;;;4985538;28;20967;-50
2021/03/14 09:06:53;;;;;;;1.30;0.93;;;7.30;99.90;;;;;;4988805;28;20458;-50
2021/03/14 09:09:21;;;;;;;1.10;0.90;;;7.10;99.90;;;;;;4997688;28;20457;-50
2021/03/14 09:11:49;;;;;;;1.00;0.67;;;6.60;99.90;;;;;;4985884;28;21015;-50
2021/03/14 09:14:25;;;;;;;2.53;1.00;;;6.10;99.90;;;;;;4985787;28;20461;-50
2021/03/14 09:16:52;;;;;;;1.00;0.70;;;6.20;99.90;;;;;;4978368;28;20960;-50
2021/03/14 09:19:35;;;;;;;1.10;0.70;;;5.80;99.90;;;;;;4984261;28;20475;-49
2021/03/14 09:22:04;;;;;;;0.93;0.63;;;5.70;99.90;;;;;;4987871;28;20254;-50
2021/03/14 09:24:36;;;;;;;0.80;0.67;;;5.50;99.90;;;;;;4993205;28;20450;-50
2021/03/14 09:27:06;;;;;;;1.17;0.70;;;5.40;99.90;;;;;;4990172;28;20532;-50
2021/03/14 09:29:46;;;;;;;0.73;0.70;;;5.60;99.90;;;;;;4988701;28;20458;-50
2021/03/14 09:32:21;;;;;;;2.40;0.77;;;5.70;99.90;;;;;;4976960;28;20466;-50
2021/03/14 09:34:49;;;;;;;1.93;0.70;;;5.80;99.90;;;;;;4984166;28;20446;-49
2021/03/14 09:37:30;;;;;;;1.10;1.00;;;5.90;99.90;;;;;;4991366;28;20589;-49
2021/03/14 09:40:09;;;;;;;1.17;0.83;;;5.90;99.90;;;;;;4973737;28;21020;-49
2021/03/14 09:42:36;;;;;;;0.80;0.80;;;6.00;99.90;;;;;;4981601;28;20995;-49
2021/03/14 09:45:09;;;;;;;1.10;0.60;;;5.90;99.90;;;;;;4972054;28;20451;-50
2021/03/14 09:47:35;;;;;;;0.70;0.70;;;5.90;99.90;;;;;;4972616;28;20451;-50
2021/03/14 09:50:05;;;;;;;0.73;0.60;;;5.80;99.90;;;;;;4973706;28;20477;-49
2021/03/14 09:52:33;;;;;;;0.70;0.60;;;5.90;99.90;;;;;;4989775;28;21059;-49
2021/03/14 09:54:59;;;;;;;3.43;0.70;;;6.00;99.90;;;;;;4984253;28;20901;-50
2021/03/14 09:57:28;;;;;;;0.70;0.60;;;6.00;99.90;;;;;;4972164;28;20449;-49
2021/03/14 09:59:58;;;;;;;1.07;0.60;;;5.90;99.90;;;;;;4977976;28;20491;-50
2021/03/14 10:02:24;;;;;;;1.47;1.00;;;5.90;99.90;;;;;;4979514;28;20470;-50
2021/03/14 10:04:51;;;;;;;0.80;0.60;;;5.60;99.90;;;;;;4985671;28;20459;-50
2021/03/14 10:07:22;;;;;;;1.00;0.60;;;5.60;99.90;;;;;;4984482;28;20461;-50
2021/03/14 10:09:49;;;;;;;1.77;0.80;;;5.40;99.90;;;;;;4985287;28;20490;-50
2021/03/14 10:12:16;;;;;;;0.80;0.70;;;5.30;99.90;;;;;;4991009;28;20446;-50
2021/03/14 10:14:44;;;;;;;2.00;0.70;;;5.50;99.90;;;;;;4990633;28;20455;-50
2021/03/14 10:17:12;;;;;;;0.70;0.70;;;5.40;99.90;;;;;;4977679;28;20517;-50
2021/03/14 10:19:39;;;;;;;1.03;0.67;;;5.30;99.90;;;;;;4989761;28;20511;-49
2021/03/14 10:22:05;;;;;;;2.03;1.30;;;5.50;99.90;;;;;;4983243;28;20463;-50
2021/03/14 10:24:32;;;;;;;2.63;1.70;;;5.70;99.90;;;;;;4985666;28;20461;-49
2021/03/14 10:26:59;;;;;;;4.20;0.77;;;5.70;99.90;;;;;;4991221;28;20454;-50
2021/03/14 10:29:30;;;;;;;0.87;0.60;;;6.00;99.90;;;;;;4990871;28;20983;-50
2021/03/14 10:31:57;;;;;;;1.70;0.63;;;6.20;99.90;;;;;;4989146;28;20470;-49
2021/03/14 10:34:24;;;;;;;0.80;0.70;;;6.10;99.90;;;;;;4979588;28;20874;-49
2021/03/14 10:36:52;;;;;;;1.87;0.60;;;6.10;99.90;;;;;;4984979;28;20451;-50
2021/03/14 10:39:26;;;;;;;0.80;0.60;;;6.00;99.90;;;;;;4987517;28;20506;-49
2021/03/14 10:41:53;;;;;;;3.37;0.60;;;6.10;99.90;;;;;;4990847;28;20466;-50
2021/03/14 10:44:24;;;;;;;0.63;0.40;;;6.10;99.90;;;;;;4989762;28;20987;-50
2021/03/14 10:46:52;;;;;;;1.90;0.80;;;6.10;99.90;;;;;;4985730;28;20513;-49
2021/03/14 10:49:28;;;;;;;2.70;0.80;;;6.00;99.90;;;;;;4991257;28;20465;-49
2021/03/14 10:51:56;;;;;;;1.53;0.70;;;6.10;99.90;;;;;;4981258;28;20495;-50
2021/03/14 10:54:31;;;;;;;2.03;1.47;;;6.40;99.90;;;;;;4987654;28;20874;-49
2021/03/14 10:56:58;;;;;;;0.80;0.70;;;6.50;99.90;;;;;;4985828;28;20512;-50
2021/03/14 10:59:26;;;;;;;1.10;0.50;;;6.30;99.90;;;;;;4983866;28;20488;-49
2021/03/14 11:01:58;;;;;;;1.10;0.70;;;6.70;99.90;;;;;;4978696;28;20697;-50
2021/03/14 11:04:30;;;;;;;0.97;0.60;;;6.60;99.90;;;;;;4972075;28;20995;-50
2021/03/14 11:06:57;;;;;;;1.57;0.73;;;6.60;99.90;;;;;;4989764;28;20451;-50
2021/03/14 11:09:26;;;;;;;2.27;0.63;;;6.40;99.90;;;;;;4981284;28;20526;-50
2021/03/14 11:11:53;;;;;;;1.33;0.60;;;6.50;99.90;;;;;;4977009;28;20568;-50
2021/03/14 11:14:28;;;;;;;0.60;0.60;;;6.60;99.90;;;;;;4982733;28;20466;-49
2021/03/14 11:17:09;;;;;;;0.80;0.70;;;6.50;99.90;;;;;;4992284;28;20517;-50
2021/03/14 11:19:39;;;;;;;1.33;0.70;;;6.80;99.90;;;;;;4981227;28;20481;-49
2021/03/14 11:22:06;;;;;;;0.90;0.70;;;7.00;99.90;;;;;;4982892;28;20501;-50
2021/03/14 11:24:33;;;;;;;4.20;0.70;;;7.30;99.90;;;;;;4990637;28;20524;-50
2021/03/14 11:27:00;;;;;;;0.73;0.70;;;7.40;99.90;;;;;;4975858;28;20494;-50
2021/03/14 11:29:26;;;;;;;1.23;0.70;;;7.50;99.90;;;;;;4982436;28;20476;-49
2021/03/14 11:31:54;;;;;;;5.57;0.90;;;7.60;99.90;;;;;;4985474;28;20472;-50
2021/03/14 11:34:20;;;;;;;0.60;0.60;;;7.60;99.90;;;;;;4975485;28;20460;-49
2021/03/14 11:36:48;;;;;;;2.47;0.60;;;7.80;99.90;;;;;;4974276;28;20505;-50
2021/03/14 11:39:17;;;;;;;1.03;0.77;;;7.70;99.90;;;;;;4981911;28;20459;-50
2021/03/14 11:41:46;;;;;;;1.77;0.80;;;7.70;99.90;;;;;;4982712;28;20478;-49
2021/03/14 11:44:13;;;;;;;1.10;0.60;;;7.00;99.90;;;;;;4989751;28;20458;-49
2021/03/14 11:46:40;;;;;;;1.00;0.70;;;7.00;99.90;;;;;;4980872;28;20447;-49
2021/03/14 11:49:07;;;;;;;0.90;0.60;;;7.10;99.90;;;;;;4974278;28;20559;-50
2021/03/14 11:51:33;;;;;;;2.70;0.70;;;7.20;99.90;;;;;;4980239;28;20481;-50
2021/03/14 11:54:01;;;;;;;1.70;0.70;;;7.10;99.90;;;;;;4986373;28;20448;-50
2021/03/14 11:56:28;;;;;;;0.70;0.60;;;6.90;99.90;;;;;;4988516;28;20452;-50
2021/03/14 11:58:56;;;;;;;0.60;0.50;;;7.20;99.90;;;;;;5001983;28;21098;-50
2021/03/14 12:01:22;;;;;;;1.20;0.60;;;7.30;99.90;;;;;;4977624;28;20526;-50
2021/03/14 12:03:49;;;;;;;1.43;0.60;;;7.20;99.90;;;;;;4991535;28;20451;-49
2021/03/14 12:06:17;;;;;;;0.80;0.60;;;7.00;99.90;;;;;;4993156;28;20454;-50
2021/03/14 12:08:44;;;;;;;1.10;0.70;;;7.00;99.90;;;;;;4991807;28;20947;-50
2021/03/14 12:11:11;;;;;;;0.83;0.83;;;7.10;99.90;;;;;;4984838;28;20471;-50
2021/03/14 12:13:39;;;;;;;1.20;0.63;;;7.20;99.90;;;;;;4989695;28;20479;-50
2021/03/14 12:16:08;;;;;;;0.70;0.53;;;7.10;99.90;;;;;;4988589;28;20478;-49
2021/03/14 12:18:34;;;;;;;1.37;0.60;;;7.30;99.90;;;;;;4993029;28;20465;-50
2021/03/14 12:21:01;;;;;;;0.67;0.60;;;7.40;99.90;;;;;;4979229;28;21052;-50
2021/03/14 12:23:29;;;;;;;0.90;0.70;;;7.50;99.90;;;;;;4983469;28;20457;-50
2021/03/14 12:25:55;;;;;;;1.00;0.70;;;7.30;99.90;;;;;;4991502;28;20457;-50
2021/03/14 12:28:24;;;;;;;1.40;0.67;;;7.30;99.90;;;;;;4987873;28;20446;-50
2021/03/14 12:30:51;;;;;;;0.67;0.67;;;7.70;99.90;;;;;;4977884;28;20467;-50
2021/03/14 12:33:19;;;;;;;0.80;0.80;;;8.00;99.90;;;;;;4988121;28;20450;-50
2021/03/14 12:35:45;;;;;;;1.00;0.90;;;8.10;99.90;;;;;;4992821;28;20458;-50
2021/03/14 12:38:12;;;;;;;0.90;0.70;;;8.10;99.90;;;;;;4974757;28;20455;-50
2021/03/14 12:40:40;;;;;;;0.73;0.73;;;8.10;99.90;;;;;;4985909;28;20511;-50
2021/03/14 12:43:07;;;;;;;1.07;0.97;;;8.20;99.90;;;;;;4989603;28;20481;-49
2021/03/14 12:45:34;;;;;;;2.00;0.73;;;8.10;99.90;;;;;;4988048;28;20455;-50
2021/03/14 12:48:00;;;;;;;0.90;0.70;;;8.10;99.90;;;;;;4981580;28;20566;-50
2021/03/14 12:50:27;;;;;;;1.20;0.60;;;8.00;99.90;;;;;;4983516;28;20853;-50
2021/03/14 12:52:54;;;;;;;1.10;0.73;;;8.00;99.90;;;;;;4986729;28;20479;-50
2021/03/14 12:55:21;;;;;;;1.67;0.70;;;7.80;99.90;;;;;;4987952;28;20461;-50
2021/03/14 12:57:47;;;;;;;1.13;0.60;;;7.80;99.90;;;;;;4979699;28;20447;-50
2021/03/14 13:00:14;;;;;;;0.93;0.70;;;7.50;99.90;;;;;;4992140;28;20505;-50
2021/03/14 13:02:42;;;;;;;1.43;0.80;;;7.50;99.90;;;;;;4991450;28;21172;-50
2021/03/14 13:05:09;;;;;;;1.70;0.73;;;7.80;99.90;;;;;;4991658;28;20454;-50
2021/03/14 13:07:36;;;;;;;1.07;0.70;;;7.80;99.90;;;;;;4992339;28;20943;-49